sensor_id;sensor_type;location;lat;lon;timestamp;pressure;altitude;pressure_sealevel;temperature;humidity
4576;BME280;2300;51.874;8.430;2023-03-11T00:00:36;99480.94;;;-0.22;99.15
4576;BME280;2300;51.874;8.430;2023-03-11T00:03:05;99484.59;;;-0.08;98.98
4576;BME280;2300;51.874;8.430;2023-03-11T00:05:33;99485.59;;;-0.15;98.72
4576;BME280;2300;51.874;8.430;2023-03-11T00:08:01;99486.28;;;-0.07;98.46
4576;BME280;2300;51.874;8.430;2023-03-11T00:10:30;99495.13;;;-0.13;98.18
4576;BME280;2300;51.874;8.430;2023-03-11T00:12:57;99499.63;;;-0.20;98.09
4576;BME280;2300;51.874;8.430;2023-03-11T00:15:26;99513.63;;;-0.10;98.26
4576;BME280;2300;51.874;8.430;2023-03-11T00:17:53;99518.94;;;-0.02;98.21
4576;BME280;2300;51.874;8.430;2023-03-11T00:20:22;99525.53;;;-0.04;98.09
4576;BME280;2300;51.874;8.430;2023-03-11T00:22:50;99522.13;;;-0.13;98.49
4576;BME280;2300;51.874;8.430;2023-03-11T00:25:17;99536.63;;;-0.14;98.51
4576;BME280;2300;51.874;8.430;2023-03-11T00:27:43;99536.63;;;-0.14;98.58
4576;BME280;2300;51.874;8.430;2023-03-11T00:30:11;99539.88;;;-0.04;98.81
4576;BME280;2300;51.874;8.430;2023-03-11T00:32:40;99529.03;;;-0.25;98.33
4576;BME280;2300;51.874;8.430;2023-03-11T00:35:07;99558.56;;;-0.02;98.32
4576;BME280;2300;51.874;8.430;2023-03-11T00:37:34;99553.75;;;-0.07;98.39
4576;BME280;2300;51.874;8.430;2023-03-11T00:40:00;99528.25;;;-0.40;97.83
4576;BME280;2300;51.874;8.430;2023-03-11T00:42:27;99574.06;;;-0.11;97.78
4576;BME280;2300;51.874;8.430;2023-03-11T00:44:53;99570.31;;;-0.10;97.67
4576;BME280;2300;51.874;8.430;2023-03-11T00:47:20;99580.34;;;-0.04;97.73
4576;BME280;2300;51.874;8.430;2023-03-11T00:49:47;99578.41;;;-0.10;97.95
4576;BME280;2300;51.874;8.430;2023-03-11T00:52:14;99591.34;;;-0.05;97.86
4576;BME280;2300;51.874;8.430;2023-03-11T00:54:40;99592.75;;;-0.09;97.92
4576;BME280;2300;51.874;8.430;2023-03-11T00:57:07;99592.56;;;-0.08;97.93
4576;BME280;2300;51.874;8.430;2023-03-11T00:59:33;99592.03;;;-0.18;97.83
4576;BME280;2300;51.874;8.430;2023-03-11T01:02:00;99596.69;;;-0.12;97.98
4576;BME280;2300;51.874;8.430;2023-03-11T01:04:26;99608.38;;;-0.05;98.23
4576;BME280;2300;51.874;8.430;2023-03-11T01:06:54;99608.38;;;-0.05;98.30
4576;BME280;2300;51.874;8.430;2023-03-11T01:09:20;99594.28;;;-0.22;98.19
4576;BME280;2300;51.874;8.430;2023-03-11T01:11:47;99620.22;;;-0.06;98.41
4576;BME280;2300;51.874;8.430;2023-03-11T01:14:13;99616.56;;;0.02;98.36
4576;BME280;2300;51.874;8.430;2023-03-11T01:16:40;99622.78;;;0.02;98.30
4576;BME280;2300;51.874;8.430;2023-03-11T01:19:06;99618.00;;;-0.17;98.12
4576;BME280;2300;51.874;8.430;2023-03-11T01:21:33;99630.09;;;-0.13;98.29
4576;BME280;2300;51.874;8.430;2023-03-11T01:24:00;99638.84;;;-0.11;98.27
4576;BME280;2300;51.874;8.430;2023-03-11T01:26:27;99641.03;;;0.00;98.55
4576;BME280;2300;51.874;8.430;2023-03-11T01:28:53;99636.75;;;-0.09;98.81
4576;BME280;2300;51.874;8.430;2023-03-11T01:31:20;99648.22;;;-0.07;98.88
4576;BME280;2300;51.874;8.430;2023-03-11T01:33:46;99654.53;;;0.00;99.07
4576;BME280;2300;51.874;8.430;2023-03-11T01:36:13;99640.56;;;-0.03;98.88
4576;BME280;2300;51.874;8.430;2023-03-11T01:38:39;99647.47;;;-0.01;98.57
4576;BME280;2300;51.874;8.430;2023-03-11T01:41:07;99645.06;;;-0.10;98.67
4576;BME280;2300;51.874;8.430;2023-03-11T01:43:46;99665.16;;;-0.13;99.16
4576;BME280;2300;51.874;8.430;2023-03-11T01:46:14;99668.03;;;0.00;98.71
4576;BME280;2300;51.874;8.430;2023-03-11T01:48:44;99661.34;;;-0.04;98.84
4576;BME280;2300;51.874;8.430;2023-03-11T01:51:11;99665.03;;;-0.05;98.76
4576;BME280;2300;51.874;8.430;2023-03-11T01:53:38;99607.13;;;-0.38;99.00
4576;BME280;2300;51.874;8.430;2023-03-11T01:56:05;99660.50;;;-0.04;98.54
4576;BME280;2300;51.874;8.430;2023-03-11T01:58:36;99661.06;;;-0.09;98.40
4576;BME280;2300;51.874;8.430;2023-03-11T02:01:04;99666.56;;;-0.17;98.50
4576;BME280;2300;51.874;8.430;2023-03-11T02:03:35;99673.09;;;-0.26;98.40
4576;BME280;2300;51.874;8.430;2023-03-11T02:06:06;99675.97;;;-0.13;99.07
4576;BME280;2300;51.874;8.430;2023-03-11T02:08:34;99679.31;;;-0.11;99.26
4576;BME280;2300;51.874;8.430;2023-03-11T02:11:02;99677.91;;;-0.07;99.24
4576;BME280;2300;51.874;8.430;2023-03-11T02:13:31;99684.06;;;-0.13;99.48
4576;BME280;2300;51.874;8.430;2023-03-11T02:16:01;99688.31;;;-0.04;99.03
4576;BME280;2300;51.874;8.430;2023-03-11T02:18:28;99681.81;;;-0.09;99.36
4576;BME280;2300;51.874;8.430;2023-03-11T02:21:03;99677.63;;;-0.12;99.25
4576;BME280;2300;51.874;8.430;2023-03-11T02:23:36;99682.66;;;-0.09;99.11
4576;BME280;2300;51.874;8.430;2023-03-11T02:26:08;99685.00;;;-0.06;99.11
4576;BME280;2300;51.874;8.430;2023-03-11T02:28:41;99688.72;;;-0.07;99.10
4576;BME280;2300;51.874;8.430;2023-03-11T02:31:07;99699.13;;;-0.04;99.29
4576;BME280;2300;51.874;8.430;2023-03-11T02:33:35;99687.59;;;-0.12;99.27
4576;BME280;2300;51.874;8.430;2023-03-11T02:36:03;99685.56;;;-0.10;99.56
4576;BME280;2300;51.874;8.430;2023-03-11T02:38:29;99695.88;;;-0.14;99.66
4576;BME280;2300;51.874;8.430;2023-03-11T02:40:57;99695.69;;;-0.12;99.66
4576;BME280;2300;51.874;8.430;2023-03-11T02:43:28;99687.88;;;-0.07;99.50
4576;BME280;2300;51.874;8.430;2023-03-11T02:45:59;99697.81;;;-0.08;99.45
4576;BME280;2300;51.874;8.430;2023-03-11T02:48:27;99704.78;;;0.01;99.44
4576;BME280;2300;51.874;8.430;2023-03-11T02:50:55;99700.06;;;-0.11;99.43
4576;BME280;2300;51.874;8.430;2023-03-11T02:53:21;99705.25;;;-0.10;98.97
4576;BME280;2300;51.874;8.430;2023-03-11T02:55:48;99709.38;;;-0.14;99.06
4576;BME280;2300;51.874;8.430;2023-03-11T02:58:14;99706.66;;;-0.14;99.25
4576;BME280;2300;51.874;8.430;2023-03-11T03:00:41;99713.47;;;-0.18;99.32
4576;BME280;2300;51.874;8.430;2023-03-11T03:03:09;99715.31;;;-0.18;99.18
4576;BME280;2300;51.874;8.430;2023-03-11T03:05:35;99715.91;;;-0.23;99.58
4576;BME280;2300;51.874;8.430;2023-03-11T03:08:02;99725.94;;;-0.17;99.36
4576;BME280;2300;51.874;8.430;2023-03-11T03:10:29;99722.13;;;-0.08;99.38
4576;BME280;2300;51.874;8.430;2023-03-11T03:12:56;99717.56;;;-0.07;99.13
4576;BME280;2300;51.874;8.430;2023-03-11T03:15:22;99726.69;;;-0.08;98.88
4576;BME280;2300;51.874;8.430;2023-03-11T03:17:49;99722.03;;;-0.14;98.78
4576;BME280;2300;51.874;8.430;2023-03-11T03:20:17;99735.50;;;-0.14;98.96
4576;BME280;2300;51.874;8.430;2023-03-11T03:22:47;99746.41;;;-0.08;99.06
4576;BME280;2300;51.874;8.430;2023-03-11T03:25:14;99734.31;;;-0.12;99.24
4576;BME280;2300;51.874;8.430;2023-03-11T03:27:40;99744.94;;;-0.10;99.38
4576;BME280;2300;51.874;8.430;2023-03-11T03:30:08;99752.66;;;-0.07;99.30
4576;BME280;2300;51.874;8.430;2023-03-11T03:32:35;99756.28;;;-0.15;99.32
4576;BME280;2300;51.874;8.430;2023-03-11T03:35:03;99758.50;;;-0.04;99.02
4576;BME280;2300;51.874;8.430;2023-03-11T03:37:33;99752.56;;;-0.14;99.74
4576;BME280;2300;51.874;8.430;2023-03-11T03:40:00;99761.41;;;-0.05;99.43
4576;BME280;2300;51.874;8.430;2023-03-11T03:42:27;99768.47;;;-0.04;99.27
4576;BME280;2300;51.874;8.430;2023-03-11T03:44:54;99769.13;;;-0.17;99.67
4576;BME280;2300;51.874;8.430;2023-03-11T03:47:20;99770.16;;;-0.03;99.48
4576;BME280;2300;51.874;8.430;2023-03-11T03:49:47;99782.44;;;-0.01;99.68
4576;BME280;2300;51.874;8.430;2023-03-11T03:52:13;99790.53;;;-0.01;99.76
4576;BME280;2300;51.874;8.430;2023-03-11T03:54:41;99792.88;;;0.02;99.60
4576;BME280;2300;51.874;8.430;2023-03-11T03:57:08;99797.25;;;0.03;99.39
4576;BME280;2300;51.874;8.430;2023-03-11T03:59:34;99794.91;;;0.00;99.51
4576;BME280;2300;51.874;8.430;2023-03-11T04:02:01;99794.63;;;-0.05;99.52
4576;BME280;2300;51.874;8.430;2023-03-11T04:04:27;99802.06;;;-0.07;99.58
4576;BME280;2300;51.874;8.430;2023-03-11T04:06:54;99779.53;;;-0.14;99.43
4576;BME280;2300;51.874;8.430;2023-03-11T04:09:21;99797.97;;;-0.03;99.22
4576;BME280;2300;51.874;8.430;2023-03-11T04:11:49;99805.13;;;-0.10;99.20
4576;BME280;2300;51.874;8.430;2023-03-11T04:14:16;99807.53;;;-0.15;99.36
4576;BME280;2300;51.874;8.430;2023-03-11T04:16:42;99808.88;;;-0.11;99.37
4576;BME280;2300;51.874;8.430;2023-03-11T04:19:09;99810.25;;;-0.15;99.35
4576;BME280;2300;51.874;8.430;2023-03-11T04:21:36;99814.22;;;-0.26;99.50
4576;BME280;2300;51.874;8.430;2023-03-11T04:24:03;99821.72;;;-0.13;99.08
4576;BME280;2300;51.874;8.430;2023-03-11T04:26:29;99825.13;;;-0.19;98.80
4576;BME280;2300;51.874;8.430;2023-03-11T04:28:57;99828.28;;;-0.30;99.03
4576;BME280;2300;51.874;8.430;2023-03-11T04:31:24;99838.72;;;-0.27;99.18
4576;BME280;2300;51.874;8.430;2023-03-11T04:33:50;99841.03;;;-0.24;99.16
4576;BME280;2300;51.874;8.430;2023-03-11T04:36:17;99838.72;;;-0.27;98.71
4576;BME280;2300;51.874;8.430;2023-03-11T04:38:43;99838.16;;;-0.37;99.23
4576;BME280;2300;51.874;8.430;2023-03-11T04:41:10;99834.13;;;-0.41;99.64
4576;BME280;2300;51.874;8.430;2023-03-11T04:43:37;99839.06;;;-0.30;99.20
4576;BME280;2300;51.874;8.430;2023-03-11T04:46:05;99840.41;;;-0.26;99.15
4576;BME280;2300;51.874;8.430;2023-03-11T04:48:32;99841.41;;;-0.27;99.11
4576;BME280;2300;51.874;8.430;2023-03-11T04:50:58;99851.66;;;-0.23;99.08
4576;BME280;2300;51.874;8.430;2023-03-11T04:53:25;99855.38;;;-0.24;99.25
4576;BME280;2300;51.874;8.430;2023-03-11T04:55:51;99859.88;;;-0.16;99.13
4576;BME280;2300;51.874;8.430;2023-03-11T04:58:18;99867.69;;;-0.21;98.83
4576;BME280;2300;51.874;8.430;2023-03-11T05:00:44;99862.00;;;-0.26;98.51
4576;BME280;2300;51.874;8.430;2023-03-11T05:03:12;99881.06;;;-0.28;98.48
4576;BME280;2300;51.874;8.430;2023-03-11T05:05:39;99885.31;;;-0.33;98.58
4576;BME280;2300;51.874;8.430;2023-03-11T05:08:05;99869.41;;;-0.28;98.50
4576;BME280;2300;51.874;8.430;2023-03-11T05:10:32;99877.97;;;-0.25;98.73
4576;BME280;2300;51.874;8.430;2023-03-11T05:12:58;99875.28;;;-0.25;98.41
4576;BME280;2300;51.874;8.430;2023-03-11T05:15:25;99880.50;;;-0.23;97.88
4576;BME280;2300;51.874;8.430;2023-03-11T05:17:51;99880.50;;;-0.23;97.25
4576;BME280;2300;51.874;8.430;2023-03-11T05:20:19;99886.72;;;-0.37;97.12
4576;BME280;2300;51.874;8.430;2023-03-11T05:22:45;99885.69;;;-0.36;97.06
4576;BME280;2300;51.874;8.430;2023-03-11T05:25:12;99890.72;;;-0.33;97.31
4576;BME280;2300;51.874;8.430;2023-03-11T05:27:38;99891.38;;;-0.31;96.91
4576;BME280;2300;51.874;8.430;2023-03-11T05:30:06;99896.56;;;-0.30;96.64
4576;BME280;2300;51.874;8.430;2023-03-11T05:32:33;99901.44;;;-0.25;96.23
4576;BME280;2300;51.874;8.430;2023-03-11T05:35:00;99892.31;;;-0.24;96.38
4576;BME280;2300;51.874;8.430;2023-03-11T05:37:29;99901.06;;;-0.22;95.97
4576;BME280;2300;51.874;8.430;2023-03-11T05:39:56;99909.19;;;-0.22;95.85
4576;BME280;2300;51.874;8.430;2023-03-11T05:42:23;99904.66;;;-0.30;95.79
4576;BME280;2300;51.874;8.430;2023-03-11T05:44:50;99912.97;;;-0.31;95.78
4576;BME280;2300;51.874;8.430;2023-03-11T05:47:16;99916.78;;;-0.26;95.43
4576;BME280;2300;51.874;8.430;2023-03-11T05:49:45;99915.88;;;-0.18;95.46
4576;BME280;2300;51.874;8.430;2023-03-11T05:52:12;99926.97;;;-0.13;95.25
4576;BME280;2300;51.874;8.430;2023-03-11T05:54:40;99925.28;;;-0.14;95.03
4576;BME280;2300;51.874;8.430;2023-03-11T05:57:06;99923.50;;;-0.22;95.21
4576;BME280;2300;51.874;8.430;2023-03-11T05:59:33;99931.06;;;-0.17;95.46
4576;BME280;2300;51.874;8.430;2023-03-11T06:01:59;99935.16;;;-0.21;95.16
4576;BME280;2300;51.874;8.430;2023-03-11T06:04:26;99931.06;;;-0.40;94.94
4576;BME280;2300;51.874;8.430;2023-03-11T06:06:53;99935.88;;;-0.27;94.68
4576;BME280;2300;51.874;8.430;2023-03-11T06:09:19;99942.81;;;-0.33;94.66
4576;BME280;2300;51.874;8.430;2023-03-11T06:11:47;99937.66;;;-0.42;94.56
4576;BME280;2300;51.874;8.430;2023-03-11T06:14:14;99943.41;;;-0.45;94.33
4576;BME280;2300;51.874;8.430;2023-03-11T06:16:40;99946.16;;;-0.53;94.19
4576;BME280;2300;51.874;8.430;2023-03-11T06:19:07;99948.25;;;-0.63;94.37
4576;BME280;2300;51.874;8.430;2023-03-11T06:21:34;99938.19;;;-0.70;94.73
4576;BME280;2300;51.874;8.430;2023-03-11T06:24:00;99926.72;;;-0.72;94.46
4576;BME280;2300;51.874;8.430;2023-03-11T06:26:27;99956.19;;;-0.62;94.59
4576;BME280;2300;51.874;8.430;2023-03-11T06:28:55;99956.97;;;-0.53;94.38
4576;BME280;2300;51.874;8.430;2023-03-11T06:31:23;99972.06;;;-0.44;93.90
4576;BME280;2300;51.874;8.430;2023-03-11T06:33:49;99978.25;;;-0.36;93.92
4576;BME280;2300;51.874;8.430;2023-03-11T06:36:18;99971.13;;;-0.29;93.77
4576;BME280;2300;51.874;8.430;2023-03-11T06:38:45;99967.53;;;-0.21;93.63
4576;BME280;2300;51.874;8.430;2023-03-11T06:41:12;99976.28;;;-0.19;93.70
4576;BME280;2300;51.874;8.430;2023-03-11T06:43:39;99979.53;;;-0.01;93.62
4576;BME280;2300;51.874;8.430;2023-03-11T06:46:10;99968.97;;;-0.10;93.13
4576;BME280;2300;51.874;8.430;2023-03-11T06:48:38;99986.22;;;0.03;93.15
4576;BME280;2300;51.874;8.430;2023-03-11T06:51:05;99974.84;;;-0.07;92.90
4576;BME280;2300;51.874;8.430;2023-03-11T06:53:32;99990.31;;;-0.01;92.78
4576;BME280;2300;51.874;8.430;2023-03-11T06:56:00;99999.66;;;0.11;92.35
4576;BME280;2300;51.874;8.430;2023-03-11T06:58:28;99995.94;;;0.12;92.48
4576;BME280;2300;51.874;8.430;2023-03-11T07:00:59;100012.25;;;0.19;92.04
4576;BME280;2300;51.874;8.430;2023-03-11T07:03:27;100015.97;;;0.18;92.16
4576;BME280;2300;51.874;8.430;2023-03-11T07:05:54;100032.88;;;0.35;91.66
4576;BME280;2300;51.874;8.430;2023-03-11T07:08:20;100026.53;;;0.42;91.44
4576;BME280;2300;51.874;8.430;2023-03-11T07:10:58;100033.47;;;0.45;91.37
4576;BME280;2300;51.874;8.430;2023-03-11T07:13:25;100031.66;;;0.37;90.83
4576;BME280;2300;51.874;8.430;2023-03-11T07:15:58;100032.03;;;0.34;91.65
4576;BME280;2300;51.874;8.430;2023-03-11T07:18:27;100030.94;;;0.43;91.42
4576;BME280;2300;51.874;8.430;2023-03-11T07:20:53;100032.50;;;0.38;90.79
4576;BME280;2300;51.874;8.430;2023-03-11T07:23:19;100043.59;;;0.43;90.64
4576;BME280;2300;51.874;8.430;2023-03-11T07:25:46;100046.38;;;0.35;90.93
4576;BME280;2300;51.874;8.430;2023-03-11T07:28:13;100057.09;;;0.43;90.22
4576;BME280;2300;51.874;8.430;2023-03-11T07:30:39;100056.22;;;0.50;90.10
4576;BME280;2300;51.874;8.430;2023-03-11T07:33:08;100066.75;;;0.60;89.26
4576;BME280;2300;51.874;8.430;2023-03-11T07:35:36;100078.00;;;0.49;88.54
4576;BME280;2300;51.874;8.430;2023-03-11T07:38:02;100088.50;;;0.67;88.56
4576;BME280;2300;51.874;8.430;2023-03-11T07:40:29;100086.72;;;0.74;87.60
4576;BME280;2300;51.874;8.430;2023-03-11T07:42:55;100088.97;;;0.70;87.64
4576;BME280;2300;51.874;8.430;2023-03-11T07:45:22;100095.63;;;0.82;87.74
4576;BME280;2300;51.874;8.430;2023-03-11T07:47:48;100097.78;;;0.64;87.11
4576;BME280;2300;51.874;8.430;2023-03-11T07:50:15;100099.19;;;0.60;86.58
4576;BME280;2300;51.874;8.430;2023-03-11T07:52:43;100119.84;;;0.53;87.08
4576;BME280;2300;51.874;8.430;2023-03-11T07:55:10;100118.47;;;0.57;86.76
4576;BME280;2300;51.874;8.430;2023-03-11T07:57:36;100126.34;;;0.44;86.17
4576;BME280;2300;51.874;8.430;2023-03-11T08:00:04;100128.44;;;0.34;87.27
4576;BME280;2300;51.874;8.430;2023-03-11T08:02:31;100133.66;;;0.35;87.98
4576;BME280;2300;51.874;8.430;2023-03-11T08:04:57;100143.31;;;0.52;88.16
4576;BME280;2300;51.874;8.430;2023-03-11T08:07:24;100140.28;;;0.55;87.55
4576;BME280;2300;51.874;8.430;2023-03-11T08:09:52;100139.25;;;0.56;87.27
4576;BME280;2300;51.874;8.430;2023-03-11T08:12:19;100141.88;;;0.64;87.19
4576;BME280;2300;51.874;8.430;2023-03-11T08:14:45;100150.81;;;0.42;86.90
4576;BME280;2300;51.874;8.430;2023-03-11T08:17:12;100152.22;;;0.38;87.17
4576;BME280;2300;51.874;8.430;2023-03-11T08:19:38;100164.53;;;0.41;87.61
4576;BME280;2300;51.874;8.430;2023-03-11T08:22:05;100160.75;;;0.50;87.46
4576;BME280;2300;51.874;8.430;2023-03-11T08:24:32;100162.97;;;0.46;87.13
4576;BME280;2300;51.874;8.430;2023-03-11T08:27:01;100175.03;;;0.58;86.81
4576;BME280;2300;51.874;8.430;2023-03-11T08:29:27;100160.66;;;0.58;85.86
4576;BME280;2300;51.874;8.430;2023-03-11T08:31:54;100169.53;;;0.52;85.84
4576;BME280;2300;51.874;8.430;2023-03-11T08:34:20;100172.56;;;0.49;85.47
4576;BME280;2300;51.874;8.430;2023-03-11T08:36:46;100178.88;;;0.64;86.28
4576;BME280;2300;51.874;8.430;2023-03-11T08:39:13;100182.38;;;0.73;86.43
4576;BME280;2300;51.874;8.430;2023-03-11T08:41:39;100180.34;;;0.89;85.52
4576;BME280;2300;51.874;8.430;2023-03-11T08:44:07;100174.50;;;1.00;85.46
4576;BME280;2300;51.874;8.430;2023-03-11T08:46:35;100181.97;;;0.98;85.14
4576;BME280;2300;51.874;8.430;2023-03-11T08:49:02;100199.13;;;1.05;84.45
4576;BME280;2300;51.874;8.430;2023-03-11T08:51:32;100178.97;;;0.93;83.79
4576;BME280;2300;51.874;8.430;2023-03-11T08:53:59;100193.97;;;1.33;83.31
4576;BME280;2300;51.874;8.430;2023-03-11T08:56:26;100195.78;;;1.56;83.07
4576;BME280;2300;51.874;8.430;2023-03-11T08:58:53;100206.69;;;1.91;82.72
4576;BME280;2300;51.874;8.430;2023-03-11T09:01:20;100202.31;;;1.90;82.69
4576;BME280;2300;51.874;8.430;2023-03-11T09:03:48;100202.56;;;1.96;81.67
4576;BME280;2300;51.874;8.430;2023-03-11T09:06:16;100204.25;;;1.97;80.66
4576;BME280;2300;51.874;8.430;2023-03-11T09:08:44;100212.72;;;2.23;81.19
4576;BME280;2300;51.874;8.430;2023-03-11T09:11:11;100219.00;;;2.45;81.13
4576;BME280;2300;51.874;8.430;2023-03-11T09:13:38;100215.19;;;2.39;79.78
4576;BME280;2300;51.874;8.430;2023-03-11T09:16:06;100222.06;;;2.56;79.20
4576;BME280;2300;51.874;8.430;2023-03-11T09:18:33;100211.94;;;2.86;76.76
4576;BME280;2300;51.874;8.430;2023-03-11T09:21:00;100211.66;;;3.02;78.58
4576;BME280;2300;51.874;8.430;2023-03-11T09:23:26;100216.47;;;3.28;77.10
4576;BME280;2300;51.874;8.430;2023-03-11T09:25:53;100211.13;;;3.35;77.25
4576;BME280;2300;51.874;8.430;2023-03-11T09:28:19;100211.59;;;3.45;74.39
4576;BME280;2300;51.874;8.430;2023-03-11T09:30:46;100217.63;;;3.40;73.66
4576;BME280;2300;51.874;8.430;2023-03-11T09:33:12;100212.78;;;3.63;74.35
4576;BME280;2300;51.874;8.430;2023-03-11T09:35:40;100222.75;;;3.91;72.76
4576;BME280;2300;51.874;8.430;2023-03-11T09:38:06;100210.31;;;4.03;73.30
4576;BME280;2300;51.874;8.430;2023-03-11T09:40:45;100217.91;;;4.21;72.35
4576;BME280;2300;51.874;8.430;2023-03-11T09:43:21;100204.31;;;4.14;72.34
4576;BME280;2300;51.874;8.430;2023-03-11T09:45:54;100223.00;;;4.37;70.74
4576;BME280;2300;51.874;8.430;2023-03-11T09:48:31;100215.88;;;4.29;70.80
4576;BME280;2300;51.874;8.430;2023-03-11T09:51:09;100197.97;;;4.07;70.94
4576;BME280;2300;51.874;8.430;2023-03-11T09:53:42;100219.53;;;4.15;70.51
4576;BME280;2300;51.874;8.430;2023-03-11T09:56:10;100231.25;;;4.09;71.93
4576;BME280;2300;51.874;8.430;2023-03-11T09:58:40;100233.13;;;4.50;73.06
4576;BME280;2300;51.874;8.430;2023-03-11T10:01:14;100217.13;;;4.33;71.42
4576;BME280;2300;51.874;8.430;2023-03-11T10:03:42;100233.66;;;4.99;70.77
4576;BME280;2300;51.874;8.430;2023-03-11T10:06:16;100233.44;;;4.94;70.46
4576;BME280;2300;51.874;8.430;2023-03-11T10:08:46;100233.03;;;5.10;69.88
4576;BME280;2300;51.874;8.430;2023-03-11T10:11:38;100231.13;;;5.04;69.77
4576;BME280;2300;51.874;8.430;2023-03-11T10:14:17;100237.22;;;5.06;68.23
4576;BME280;2300;51.874;8.430;2023-03-11T10:16:56;100226.72;;;5.03;69.17
4576;BME280;2300;51.874;8.430;2023-03-11T10:19:34;100244.59;;;5.39;69.44
4576;BME280;2300;51.874;8.430;2023-03-11T10:22:12;100232.44;;;5.28;68.79
4576;BME280;2300;51.874;8.430;2023-03-11T10:24:56;100232.00;;;5.38;68.83
4576;BME280;2300;51.874;8.430;2023-03-11T10:27:28;100234.72;;;5.51;67.31
4576;BME280;2300;51.874;8.430;2023-03-11T10:30:02;100243.31;;;5.41;66.46
4576;BME280;2300;51.874;8.430;2023-03-11T10:32:37;100214.84;;;5.17;65.84
4576;BME280;2300;51.874;8.430;2023-03-11T10:35:14;100254.41;;;5.66;63.89
4576;BME280;2300;51.874;8.430;2023-03-11T10:37:45;100264.69;;;5.18;63.48
4576;BME280;2300;51.874;8.430;2023-03-11T10:40:18;100252.91;;;4.98;64.77
4576;BME280;2300;51.874;8.430;2023-03-11T10:42:48;100270.75;;;5.26;66.28
4576;BME280;2300;51.874;8.430;2023-03-11T10:45:17;100269.69;;;5.41;63.51
4576;BME280;2300;51.874;8.430;2023-03-11T10:47:45;100270.97;;;5.31;64.00
4576;BME280;2300;51.874;8.430;2023-03-11T10:50:14;100269.25;;;5.11;64.81
4576;BME280;2300;51.874;8.430;2023-03-11T10:53:03;100267.53;;;4.77;63.01
4576;BME280;2300;51.874;8.430;2023-03-11T10:55:29;100258.56;;;4.35;64.89
4576;BME280;2300;51.874;8.430;2023-03-11T10:58:04;100263.13;;;4.89;67.50
4576;BME280;2300;51.874;8.430;2023-03-11T11:00:30;100264.22;;;5.14;65.38
4576;BME280;2300;51.874;8.430;2023-03-11T11:02:57;100266.75;;;5.36;65.86
4576;BME280;2300;51.874;8.430;2023-03-11T11:05:28;100260.25;;;5.89;65.86
4576;BME280;2300;51.874;8.430;2023-03-11T11:08:04;100263.22;;;6.45;66.68
4576;BME280;2300;51.874;8.430;2023-03-11T11:10:31;100258.13;;;6.62;64.09
4576;BME280;2300;51.874;8.430;2023-03-11T11:13:00;100260.63;;;6.63;62.83
4576;BME280;2300;51.874;8.430;2023-03-11T11:15:30;100266.31;;;6.62;59.65
4576;BME280;2300;51.874;8.430;2023-03-11T11:17:59;100256.13;;;6.38;60.52
4576;BME280;2300;51.874;8.430;2023-03-11T11:20:28;100265.69;;;6.60;63.10
4576;BME280;2300;51.874;8.430;2023-03-11T11:22:57;100250.03;;;6.93;64.00
4576;BME280;2300;51.874;8.430;2023-03-11T11:25:29;100255.97;;;6.84;59.92
4576;BME280;2300;51.874;8.430;2023-03-11T11:27:58;100249.38;;;6.47;60.13
4576;BME280;2300;51.874;8.430;2023-03-11T11:30:26;100261.63;;;6.25;60.75
4576;BME280;2300;51.874;8.430;2023-03-11T11:32:53;100258.78;;;6.00;61.45
4576;BME280;2300;51.874;8.430;2023-03-11T11:35:20;100262.16;;;5.56;62.92
4576;BME280;2300;51.874;8.430;2023-03-11T11:37:48;100257.16;;;5.33;61.44
4576;BME280;2300;51.874;8.430;2023-03-11T11:40:22;100258.38;;;5.30;62.67
4576;BME280;2300;51.874;8.430;2023-03-11T11:42:53;100261.31;;;5.55;61.93
4576;BME280;2300;51.874;8.430;2023-03-11T11:45:26;100257.53;;;5.50;61.12
4576;BME280;2300;51.874;8.430;2023-03-11T11:47:57;100255.88;;;5.75;62.75
4576;BME280;2300;51.874;8.430;2023-03-11T11:50:27;100247.38;;;6.23;60.98
4576;BME280;2300;51.874;8.430;2023-03-11T11:53:02;100255.59;;;6.09;61.73
4576;BME280;2300;51.874;8.430;2023-03-11T11:55:32;100241.19;;;5.76;60.87
4576;BME280;2300;51.874;8.430;2023-03-11T11:58:06;100252.66;;;6.11;62.32
4576;BME280;2300;51.874;8.430;2023-03-11T12:00:39;100252.53;;;6.44;62.15
4576;BME280;2300;51.874;8.430;2023-03-11T12:03:29;100249.28;;;6.73;61.78
4576;BME280;2300;51.874;8.430;2023-03-11T12:06:06;100243.81;;;6.73;60.46
4576;BME280;2300;51.874;8.430;2023-03-11T12:08:40;100256.25;;;7.00;61.86
4576;BME280;2300;51.874;8.430;2023-03-11T12:11:13;100256.88;;;7.02;60.07
4576;BME280;2300;51.874;8.430;2023-03-11T12:13:52;100245.81;;;7.22;60.71
4576;BME280;2300;51.874;8.430;2023-03-11T12:16:33;100246.75;;;7.41;59.78
4576;BME280;2300;51.874;8.430;2023-03-11T12:19:14;100250.88;;;6.94;58.14
4576;BME280;2300;51.874;8.430;2023-03-11T12:21:57;100236.81;;;6.46;57.11
4576;BME280;2300;51.874;8.430;2023-03-11T12:24:47;100243.69;;;5.91;59.94
4576;BME280;2300;51.874;8.430;2023-03-11T12:27:19;100252.75;;;5.52;58.01
4576;BME280;2300;51.874;8.430;2023-03-11T12:29:51;100238.25;;;5.18;58.28
4576;BME280;2300;51.874;8.430;2023-03-11T12:32:24;100250.03;;;5.39;58.13
4576;BME280;2300;51.874;8.430;2023-03-11T12:34:53;100251.50;;;5.54;58.06
4576;BME280;2300;51.874;8.430;2023-03-11T12:37:22;100250.44;;;5.75;57.75
4576;BME280;2300;51.874;8.430;2023-03-11T12:39:48;100254.16;;;5.94;59.31
4576;BME280;2300;51.874;8.430;2023-03-11T12:42:17;100237.34;;;6.10;57.07
4576;BME280;2300;51.874;8.430;2023-03-11T12:44:45;100253.16;;;6.46;57.92
4576;BME280;2300;51.874;8.430;2023-03-11T12:47:21;100249.94;;;5.98;57.94
4576;BME280;2300;51.874;8.430;2023-03-11T12:49:49;100244.06;;;6.07;58.16
4576;BME280;2300;51.874;8.430;2023-03-11T12:52:24;100250.53;;;6.26;58.94
4576;BME280;2300;51.874;8.430;2023-03-11T12:55:23;100243.69;;;5.78;59.07
4576;BME280;2300;51.874;8.430;2023-03-11T13:00:52;100221.94;;;5.05;59.65
4576;BME280;2300;51.874;8.430;2023-03-11T13:03:39;100240.38;;;5.23;59.41
4576;BME280;2300;51.874;8.430;2023-03-11T13:06:19;100238.72;;;5.42;58.99
4576;BME280;2300;51.874;8.430;2023-03-11T13:08:49;100238.50;;;5.63;59.74
4576;BME280;2300;51.874;8.430;2023-03-11T13:11:27;100244.09;;;5.81;60.21
4576;BME280;2300;51.874;8.430;2023-03-11T13:14:08;100246.47;;;5.58;59.92
4576;BME280;2300;51.874;8.430;2023-03-11T13:16:38;100250.66;;;5.27;58.92
4576;BME280;2300;51.874;8.430;2023-03-11T13:19:34;100261.28;;;4.96;58.53
4576;BME280;2300;51.874;8.430;2023-03-11T13:22:02;100263.34;;;4.81;59.09
4576;BME280;2300;51.874;8.430;2023-03-11T13:24:50;100266.75;;;5.16;59.43
4576;BME280;2300;51.874;8.430;2023-03-11T13:27:37;100265.53;;;5.38;58.54
4576;BME280;2300;51.874;8.430;2023-03-11T13:30:14;100278.94;;;5.59;58.33
4576;BME280;2300;51.874;8.430;2023-03-11T13:32:56;100279.31;;;5.30;58.80
4576;BME280;2300;51.874;8.430;2023-03-11T13:35:43;100279.31;;;5.10;60.06